Time;durP1;ratioP1;P1;durP2;ratioP2;P2;SDS_P1;SDS_P2;PMS_P1;PMS_P2;Temp;Humidity;BMP_temperature;BMP_pressure;BME280_temperature;BME280_humidity;BME280_pressure;Samples;Min_cycle;Max_cycle;Signal;HPM_P1;HPM_P2
2021/07/19 00:00:01;;;;;;;2.00;1.90;;;18.80;99.90;;;;;;5072920;28;20844;-82
2021/07/19 00:02:28;;;;;;;1.87;1.77;;;18.80;99.90;;;;;;5073255;28;20448;-82
2021/07/19 00:04:55;;;;;;;2.57;2.47;;;18.80;99.90;;;;;;5073245;28;20445;-82
2021/07/19 00:07:23;;;;;;;2.70;2.53;;;18.80;99.90;;;;;;5072973;28;20803;-82
2021/07/19 00:09:50;;;;;;;2.00;1.90;;;18.70;99.90;;;;;;5073121;28;20500;-82
2021/07/19 00:12:17;;;;;;;2.83;2.00;;;18.70;99.90;;;;;;5072902;28;20949;-82
2021/07/19 00:14:45;;;;;;;2.13;2.00;;;18.70;99.90;;;;;;5073141;28;20449;-82
2021/07/19 00:17:15;;;;;;;2.63;2.43;;;18.70;99.90;;;;;;5073288;28;20449;-82
2021/07/19 00:19:42;;;;;;;2.33;2.10;;;18.70;99.90;;;;;;5074217;28;20465;-82
2021/07/19 00:22:09;;;;;;;2.20;1.93;;;18.70;99.90;;;;;;5077105;28;20449;-83
2021/07/19 00:24:36;;;;;;;2.23;2.03;;;18.60;99.90;;;;;;5077046;28;20448;-83
2021/07/19 00:27:03;;;;;;;2.30;2.20;;;18.60;99.90;;;;;;5076971;28;20457;-84
2021/07/19 00:29:30;;;;;;;2.27;2.17;;;18.50;99.90;;;;;;5076527;28;20476;-83
2021/07/19 00:31:56;;;;;;;2.47;2.27;;;18.50;99.90;;;;;;5076607;28;20959;-84
2021/07/19 00:34:25;;;;;;;2.43;2.07;;;18.40;99.90;;;;;;5076785;28;20452;-84
2021/07/19 00:36:54;;;;;;;2.10;2.00;;;18.40;99.90;;;;;;5076782;28;20453;-84
2021/07/19 00:39:21;;;;;;;1.70;1.60;;;18.30;99.90;;;;;;5076565;28;20588;-83
2021/07/19 00:41:48;;;;;;;2.20;2.10;;;18.30;99.90;;;;;;5076405;28;20445;-84
2021/07/19 00:44:17;;;;;;;5.00;2.00;;;18.30;99.90;;;;;;5076626;28;20455;-85
2021/07/19 00:46:44;;;;;;;2.50;2.30;;;18.20;99.90;;;;;;5076624;28;20480;-85
2021/07/19 00:49:11;;;;;;;2.00;1.90;;;18.20;99.90;;;;;;5076410;28;20465;-84
2021/07/19 00:51:41;;;;;;;2.97;2.70;;;18.10;99.90;;;;;;5076547;28;20456;-84
2021/07/19 00:54:10;;;;;;;2.00;1.87;;;18.10;99.90;;;;;;5076707;28;20528;-83
2021/07/19 00:56:38;;;;;;;2.30;2.20;;;18.10;99.90;;;;;;5076500;28;20452;-84
2021/07/19 00:59:05;;;;;;;2.60;2.20;;;18.00;99.90;;;;;;5076533;28;20488;-82
2021/07/19 01:01:34;;;;;;;3.47;1.93;;;18.00;99.90;;;;;;5076125;28;20944;-82
2021/07/19 01:04:02;;;;;;;2.10;2.00;;;18.00;99.90;;;;;;5076568;28;20448;-82
2021/07/19 01:06:30;;;;;;;2.53;2.33;;;18.00;99.90;;;;;;5076257;28;20444;-82
2021/07/19 01:08:58;;;;;;;2.37;2.17;;;17.90;99.90;;;;;;5081039;28;20457;-82
2021/07/19 01:11:26;;;;;;;2.80;2.60;;;17.90;99.90;;;;;;5076026;28;20828;-82
2021/07/19 01:13:52;;;;;;;2.23;2.03;;;17.90;99.90;;;;;;5076113;28;20448;-82
2021/07/19 01:16:19;;;;;;;2.80;2.50;;;17.90;99.90;;;;;;5076077;28;20457;-82
2021/07/19 01:18:47;;;;;;;2.13;2.00;;;17.90;99.90;;;;;;5075895;28;20495;-82
2021/07/19 01:21:42;;;;;;;2.40;2.20;;;17.80;99.90;;;;;;5076203;28;20456;-82
2021/07/19 01:24:38;;;;;;;2.40;2.30;;;17.80;99.90;;;;;;5062782;28;20971;-86
2021/07/19 01:27:33;;;;;;;2.57;2.40;;;17.70;99.90;;;;;;5076274;28;20425;-86
2021/07/19 01:30:04;;;;;;;3.73;2.17;;;17.70;99.90;;;;;;5070112;28;20534;-86
2021/07/19 01:32:32;;;;;;;2.80;2.27;;;17.70;99.90;;;;;;5074873;28;20406;-86
2021/07/19 01:35:00;;;;;;;2.70;2.50;;;17.60;99.90;;;;;;5076132;28;20445;-86
2021/07/19 01:37:29;;;;;;;2.37;2.27;;;17.60;99.90;;;;;;5076067;28;20511;-86
2021/07/19 01:39:56;;;;;;;3.53;2.33;;;17.60;99.90;;;;;;5076039;28;20485;-86
2021/07/19 01:42:23;;;;;;;2.50;2.30;;;17.60;99.90;;;;;;5075921;28;20825;-86
2021/07/19 01:44:52;;;;;;;2.40;2.30;;;17.60;99.90;;;;;;5075832;28;20453;-82
2021/07/19 01:47:20;;;;;;;2.50;2.30;;;17.50;99.90;;;;;;5075451;28;20445;-82
2021/07/19 01:49:47;;;;;;;4.33;2.37;;;17.50;99.90;;;;;;5075322;28;20492;-82
2021/07/19 01:52:15;;;;;;;2.47;2.30;;;17.50;99.90;;;;;;5075057;28;20448;-82
2021/07/19 01:54:43;;;;;;;2.63;2.43;;;17.40;99.90;;;;;;5075358;28;20445;-82
2021/07/19 01:57:11;;;;;;;2.50;2.20;;;17.40;99.90;;;;;;5075307;28;20445;-82
2021/07/19 01:59:39;;;;;;;2.77;2.57;;;17.40;99.90;;;;;;5075110;28;20496;-82
2021/07/19 02:02:07;;;;;;;7.07;3.00;;;17.30;99.90;;;;;;5075219;28;20449;-82
2021/07/19 02:04:35;;;;;;;2.53;2.33;;;17.30;99.90;;;;;;5075134;28;20452;-82
2021/07/19 02:07:03;;;;;;;2.90;2.70;;;17.30;99.90;;;;;;5075103;28;20455;-82
2021/07/19 02:09:31;;;;;;;5.10;3.37;;;17.30;99.90;;;;;;5074962;28;20461;-82
2021/07/19 02:12:00;;;;;;;3.07;2.03;;;17.30;99.90;;;;;;5074649;28;20456;-82
2021/07/19 02:14:27;;;;;;;2.50;2.30;;;17.20;99.90;;;;;;5074893;28;20494;-82
2021/07/19 02:16:55;;;;;;;2.57;2.37;;;17.30;99.90;;;;;;5074615;28;20944;-83
2021/07/19 02:19:24;;;;;;;3.17;2.60;;;17.20;99.90;;;;;;5074672;28;20488;-84
2021/07/19 02:21:52;;;;;;;2.17;1.97;;;17.20;99.90;;;;;;5074503;28;20949;-83
2021/07/19 02:24:23;;;;;;;2.60;2.30;;;17.20;99.90;;;;;;5074749;28;20453;-83
2021/07/19 02:26:52;;;;;;;2.53;2.33;;;17.20;99.90;;;;;;5074748;28;20440;-84
2021/07/19 02:29:19;;;;;;;2.87;2.60;;;17.20;99.90;;;;;;5074172;28;20988;-83
2021/07/19 02:31:49;;;;;;;2.63;2.43;;;17.20;99.90;;;;;;5074607;28;20804;-83
2021/07/19 02:34:18;;;;;;;2.60;2.40;;;17.20;99.90;;;;;;5074233;28;20445;-82
2021/07/19 02:36:46;;;;;;;2.70;2.50;;;17.10;99.90;;;;;;5074528;28;20445;-82
2021/07/19 02:39:15;;;;;;;3.13;2.83;;;17.10;99.90;;;;;;5074347;28;20485;-82
2021/07/19 02:41:44;;;;;;;2.60;2.50;;;17.00;99.90;;;;;;5074407;28;20457;-82
2021/07/19 02:44:12;;;;;;;3.13;2.80;;;17.00;99.90;;;;;;5073958;28;20452;-82
2021/07/19 02:46:40;;;;;;;3.37;2.30;;;17.00;99.90;;;;;;5074265;28;20449;-83
2021/07/19 02:49:10;;;;;;;2.50;2.30;;;17.00;99.90;;;;;;5074142;28;20480;-83
2021/07/19 02:51:37;;;;;;;3.67;2.27;;;16.90;99.90;;;;;;5074271;28;20448;-83
2021/07/19 02:54:05;;;;;;;2.87;2.67;;;16.90;99.90;;;;;;5074122;28;20449;-84
2021/07/19 02:56:37;;;;;;;2.50;2.40;;;16.90;99.90;;;;;;5074435;28;20448;-84
2021/07/19 02:59:04;;;;;;;2.30;2.10;;;16.90;99.90;;;;;;5073997;28;20485;-84
2021/07/19 03:01:34;;;;;;;2.50;2.30;;;16.80;99.90;;;;;;5074100;28;20453;-84
2021/07/19 03:04:02;;;;;;;2.40;2.20;;;16.80;99.90;;;;;;5074034;28;20441;-83
2021/07/19 03:06:35;;;;;;;4.10;3.37;;;16.80;99.90;;;;;;5073738;28;20945;-83
2021/07/19 03:09:04;;;;;;;3.03;2.57;;;16.80;99.90;;;;;;5073555;28;20838;-83
2021/07/19 03:11:40;;;;;;;2.63;2.43;;;16.70;99.90;;;;;;5078758;28;20436;-89
2021/07/19 03:14:12;;;;;;;2.87;2.67;;;16.80;99.90;;;;;;5079467;28;20512;-90
2021/07/19 03:16:39;;;;;;;3.67;2.40;;;16.80;99.90;;;;;;5078628;28;20437;-90
2021/07/19 03:19:10;;;;;;;3.90;2.80;;;16.70;99.90;;;;;;5078612;28;20489;-90
2021/07/19 03:21:39;;;;;;;4.40;3.20;;;16.80;99.90;;;;;;5078568;28;20472;-90
2021/07/19 03:24:09;;;;;;;2.53;2.33;;;16.70;99.90;;;;;;5078429;28;20453;-90
2021/07/19 03:26:42;;;;;;;3.60;2.87;;;16.70;99.90;;;;;;5078265;28;20449;-90
2021/07/19 03:29:11;;;;;;;2.50;2.30;;;16.70;99.90;;;;;;5078493;28;20481;-90
2021/07/19 03:31:38;;;;;;;3.30;2.57;;;16.70;99.90;;;;;;5077283;28;20461;-89
2021/07/19 03:34:06;;;;;;;4.20;3.30;;;16.70;99.90;;;;;;5074664;28;20452;-82
2021/07/19 03:36:34;;;;;;;3.77;3.00;;;16.70;99.90;;;;;;5073448;28;20449;-82
2021/07/19 03:39:02;;;;;;;2.50;2.40;;;16.60;99.90;;;;;;5073357;28;20488;-83
2021/07/19 03:41:31;;;;;;;2.63;2.30;;;16.60;99.90;;;;;;5073443;28;20449;-83
2021/07/19 03:44:00;;;;;;;3.10;2.80;;;16.60;99.90;;;;;;5073513;28;20444;-84
2021/07/19 03:46:28;;;;;;;6.07;3.10;;;16.60;99.90;;;;;;5073443;28;20456;-83
2021/07/19 03:48:55;;;;;;;4.20;3.10;;;16.60;99.90;;;;;;5073644;28;20461;-84
2021/07/19 03:51:23;;;;;;;2.73;2.53;;;16.60;99.90;;;;;;5074022;28;20453;-89
2021/07/19 03:53:50;;;;;;;3.30;3.00;;;16.60;99.90;;;;;;5077310;28;20449;-89
2021/07/19 03:56:17;;;;;;;3.50;2.30;;;16.50;99.90;;;;;;5074642;28;20475;-91
2021/07/19 03:58:46;;;;;;;4.40;2.40;;;16.50;99.90;;;;;;5074862;28;20508;-89
2021/07/19 04:01:16;;;;;;;2.60;2.40;;;16.50;99.90;;;;;;5074756;28;20457;-92
2021/07/19 04:03:47;;;;;;;3.10;2.73;;;16.50;99.90;;;;;;5074128;28;20440;-91
2021/07/19 04:06:15;;;;;;;2.70;2.50;;;16.50;99.90;;;;;;5074357;28;20471;-90
2021/07/19 04:08:42;;;;;;;5.40;2.90;;;16.60;99.90;;;;;;5074122;28;20994;-90
2021/07/19 04:11:09;;;;;;;4.83;2.97;;;16.60;99.90;;;;;;5076505;28;20820;-89
2021/07/19 04:13:38;;;;;;;3.00;2.50;;;16.60;99.90;;;;;;5076436;28;20475;-89
2021/07/19 04:16:06;;;;;;;2.70;2.50;;;16.60;99.90;;;;;;5076400;28;20440;-89
2021/07/19 04:18:35;;;;;;;2.73;2.53;;;16.60;99.90;;;;;;5076559;28;20495;-89
2021/07/19 04:21:03;;;;;;;2.70;2.50;;;16.60;99.90;;;;;;5076830;28;20459;-84
2021/07/19 04:23:31;;;;;;;3.13;2.93;;;16.60;99.90;;;;;;5073020;28;20449;-83
2021/07/19 04:25:59;;;;;;;3.00;2.70;;;16.70;99.90;;;;;;5073177;28;20440;-83
2021/07/19 04:28:25;;;;;;;4.00;3.20;;;16.70;99.90;;;;;;5072685;28;20444;-84
2021/07/19 04:30:53;;;;;;;3.00;2.70;;;16.70;99.90;;;;;;5073026;28;20429;-83
2021/07/19 04:33:22;;;;;;;3.43;3.13;;;16.80;99.90;;;;;;5072950;28;20457;-82
2021/07/19 04:35:51;;;;;;;3.03;2.67;;;16.80;99.90;;;;;;5072905;28;20796;-82
2021/07/19 04:38:19;;;;;;;4.20;2.90;;;16.80;99.90;;;;;;5073082;28;20451;-82
2021/07/19 04:40:47;;;;;;;3.30;2.93;;;16.90;99.90;;;;;;5072511;28;20477;-82
2021/07/19 04:43:15;;;;;;;3.87;3.00;;;16.90;99.90;;;;;;5072857;28;20448;-82
2021/07/19 04:45:42;;;;;;;3.40;3.00;;;16.90;99.90;;;;;;5072592;28;20441;-84
2021/07/19 04:48:09;;;;;;;3.67;3.13;;;16.90;99.90;;;;;;5072838;28;20445;-82
2021/07/19 04:50:36;;;;;;;3.20;2.90;;;17.00;99.90;;;;;;5072732;28;20472;-86
2021/07/19 04:53:04;;;;;;;4.87;2.90;;;17.00;99.90;;;;;;5073115;28;20448;-86
2021/07/19 04:55:34;;;;;;;3.20;3.00;;;17.00;99.90;;;;;;5073053;28;20448;-86
2021/07/19 04:58:01;;;;;;;3.10;2.80;;;17.10;99.90;;;;;;5072832;28;20448;-86
2021/07/19 05:00:30;;;;;;;3.77;3.13;;;17.10;99.90;;;;;;5072614;28;20481;-86
2021/07/19 05:02:58;;;;;;;6.80;3.80;;;17.10;99.90;;;;;;5072893;28;20457;-86
2021/07/19 05:05:27;;;;;;;3.80;3.47;;;17.20;99.90;;;;;;5073204;28;20441;-85
2021/07/19 05:07:55;;;;;;;3.83;3.50;;;17.20;99.90;;;;;;5075804;28;20609;-86
2021/07/19 05:10:26;;;;;;;3.40;2.70;;;17.30;99.90;;;;;;5076496;28;20464;-86
2021/07/19 05:12:54;;;;;;;3.57;3.27;;;17.30;99.90;;;;;;5077516;28;20449;-86
2021/07/19 05:15:21;;;;;;;4.13;3.00;;;17.40;99.90;;;;;;5077601;28;20543;-86
2021/07/19 05:17:48;;;;;;;3.90;3.50;;;17.40;99.90;;;;;;5076360;28;20507;-86
2021/07/19 05:20:16;;;;;;;4.00;3.00;;;17.50;99.90;;;;;;5076066;28;20480;-86
2021/07/19 05:22:46;;;;;;;3.80;3.50;;;17.50;99.90;;;;;;5076276;28;20441;-85
2021/07/19 05:25:14;;;;;;;8.60;3.30;;;17.60;99.90;;;;;;5076433;28;20455;-86
2021/07/19 05:28:02;;;;;;;3.47;2.90;;;17.60;99.90;;;;;;5076254;28;20449;-85
2021/07/19 05:30:29;;;;;;;4.10;3.70;;;17.70;99.90;;;;;;5075611;28;20480;-85
2021/07/19 05:32:56;;;;;;;3.57;3.33;;;17.70;99.90;;;;;;5076012;28;20455;-86
2021/07/19 05:35:23;;;;;;;2.80;2.60;;;17.70;99.90;;;;;;5075761;28;20956;-86
2021/07/19 05:37:51;;;;;;;3.77;3.40;;;17.80;99.90;;;;;;5076016;28;20449;-86
2021/07/19 05:40:18;;;;;;;3.67;3.37;;;17.90;99.90;;;;;;5075817;28;20987;-85
2021/07/19 05:42:47;;;;;;;4.13;3.83;;;17.90;99.90;;;;;;5076012;28;20453;-86
2021/07/19 05:45:15;;;;;;;3.70;3.40;;;18.00;99.90;;;;;;5075854;28;20814;-86
2021/07/19 05:47:42;;;;;;;3.60;3.30;;;18.10;99.90;;;;;;5075835;28;20936;-85
2021/07/19 05:50:10;;;;;;;4.80;3.60;;;18.20;99.90;;;;;;5075533;28;20535;-86
2021/07/19 05:52:37;;;;;;;4.07;3.60;;;18.20;99.90;;;;;;5075687;28;20457;-89
2021/07/19 05:55:05;;;;;;;6.67;4.00;;;18.30;99.90;;;;;;5079220;28;20441;-90
2021/07/19 05:57:32;;;;;;;6.80;5.00;;;18.30;99.90;;;;;;5079053;28;20816;-90
2021/07/19 06:00:01;;;;;;;5.23;3.70;;;18.40;99.90;;;;;;5079835;28;21029;-90
2021/07/19 06:02:28;;;;;;;4.37;3.77;;;18.50;99.90;;;;;;5079758;28;20449;-83
2021/07/19 06:04:56;;;;;;;4.03;3.63;;;18.60;99.90;;;;;;5075131;28;20775;-83
2021/07/19 06:07:23;;;;;;;7.17;3.73;;;18.60;99.90;;;;;;5075111;28;20444;-83
2021/07/19 06:09:50;;;;;;;4.47;4.07;;;18.70;99.90;;;;;;5075014;28;20456;-83
2021/07/19 06:12:16;;;;;;;3.27;3.07;;;18.80;99.90;;;;;;5075030;28;20813;-83
2021/07/19 06:14:44;;;;;;;5.33;3.80;;;18.90;99.90;;;;;;5076084;28;20445;-90
2021/07/19 06:17:13;;;;;;;3.63;3.33;;;18.90;99.90;;;;;;5075769;28;20440;-90
2021/07/19 06:19:40;;;;;;;4.53;4.13;;;19.10;99.90;;;;;;5075993;28;20481;-90
2021/07/19 06:22:08;;;;;;;5.07;3.07;;;19.20;99.90;;;;;;5077523;28;20437;-91
2021/07/19 06:24:34;;;;;;;4.13;3.70;;;19.30;99.90;;;;;;5078871;28;20506;-90
2021/07/19 06:27:01;;;;;;;5.93;4.00;;;19.50;99.90;;;;;;5078355;28;20453;-90
2021/07/19 06:29:28;;;;;;;4.57;4.03;;;19.60;99.90;;;;;;5076754;28;20488;-91
2021/07/19 06:31:55;;;;;;;4.13;3.83;;;19.80;99.90;;;;;;5076293;28;20454;-90
2021/07/19 06:34:23;;;;;;;3.43;3.13;;;19.90;99.90;;;;;;5075061;28;20462;-86
2021/07/19 06:36:49;;;;;;;3.70;3.50;;;20.10;99.90;;;;;;5074818;28;20459;-86
2021/07/19 06:39:16;;;;;;;4.13;3.73;;;20.20;99.90;;;;;;5074528;28;20522;-86
2021/07/19 06:41:43;;;;;;;3.40;3.10;;;20.50;99.90;;;;;;5074603;28;20469;-86
2021/07/19 06:44:10;;;;;;;3.87;3.57;;;20.60;99.90;;;;;;5074410;28;20429;-86
2021/07/19 06:46:37;;;;;;;3.23;3.03;;;20.80;99.90;;;;;;5074676;28;20448;-86
2021/07/19 06:49:03;;;;;;;3.70;3.40;;;21.20;99.90;;;;;;5074476;28;20471;-86
2021/07/19 06:51:32;;;;;;;4.10;3.70;;;21.20;99.90;;;;;;5074261;28;20797;-86
2021/07/19 06:53:58;;;;;;;3.77;3.47;;;21.30;99.90;;;;;;5077892;28;20463;-86
2021/07/19 06:56:26;;;;;;;4.87;3.50;;;21.40;99.90;;;;;;5086608;28;20440;-86
2021/07/19 06:58:53;;;;;;;4.97;3.00;;;21.50;99.90;;;;;;5075143;28;20468;-86
2021/07/19 07:01:20;;;;;;;5.20;3.10;;;21.70;99.90;;;;;;5074572;28;20479;-86
2021/07/19 07:03:47;;;;;;;3.87;3.47;;;21.90;99.90;;;;;;5073921;28;20452;-86
2021/07/19 07:06:13;;;;;;;3.00;2.70;;;22.00;99.90;;;;;;5074172;28;20471;-87
2021/07/19 07:08:41;;;;;;;3.10;2.90;;;22.20;99.90;;;;;;5074088;28;20439;-86
2021/07/19 07:11:08;;;;;;;2.87;2.77;;;22.30;99.90;;;;;;5074142;28;20448;-86
2021/07/19 07:13:35;;;;;;;3.10;2.90;;;22.50;99.90;;;;;;5074042;28;20448;-86
2021/07/19 07:16:02;;;;;;;3.33;3.13;;;22.60;99.90;;;;;;5074050;28;20543;-86
2021/07/19 07:18:28;;;;;;;3.53;3.33;;;22.70;99.90;;;;;;5073475;28;20956;-86
2021/07/19 07:20:55;;;;;;;4.20;3.80;;;22.80;99.90;;;;;;5073817;28;20224;-86
2021/07/19 07:23:22;;;;;;;5.23;2.93;;;22.80;99.90;;;;;;5073937;28;20202;-86
2021/07/19 07:25:50;;;;;;;5.40;3.07;;;23.00;99.90;;;;;;5074168;28;20210;-86
2021/07/19 07:28:17;;;;;;;4.90;4.50;;;22.90;99.90;;;;;;5073733;28;20214;-85
2021/07/19 07:30:43;;;;;;;4.03;3.50;;;23.00;99.90;;;;;;5072571;28;20233;-86
2021/07/19 07:33:10;;;;;;;5.03;3.50;;;23.20;99.90;;;;;;5073909;28;20202;-85
2021/07/19 07:35:40;;;;;;;2.97;2.77;;;23.40;99.90;;;;;;5073466;28;20669;-85
2021/07/19 07:38:07;;;;;;;3.60;3.30;;;23.50;99.90;;;;;;5073622;28;20206;-85
2021/07/19 07:40:34;;;;;;;3.17;2.93;;;23.40;99.90;;;;;;5073438;28;20638;-85
2021/07/19 07:43:02;;;;;;;3.53;3.33;;;23.50;99.90;;;;;;5073638;28;20569;-85
2021/07/19 07:45:29;;;;;;;3.20;3.00;;;23.60;99.90;;;;;;5073578;28;20572;-85
2021/07/19 07:47:56;;;;;;;4.28;3.90;;;23.70;99.90;;;;;;5073920;28;20202;-90
2021/07/19 07:50:23;;;;;;;3.20;2.90;;;23.70;99.90;;;;;;5073751;28;20229;-85
2021/07/19 07:52:50;;;;;;;5.20;3.50;;;23.70;99.90;;;;;;5073763;28;20232;-85
2021/07/19 07:55:17;;;;;;;3.22;2.90;;;23.90;99.90;;;;;;5073272;28;20198;-86
2021/07/19 07:57:44;;;;;;;3.70;3.40;;;24.10;99.90;;;;;;5073488;28;20212;-85
2021/07/19 08:00:15;;;;;;;3.78;3.58;;;24.40;99.90;;;;;;5073328;28;20222;-85
2021/07/19 08:02:42;;;;;;;4.18;3.38;;;24.80;99.90;;;;;;5073008;28;20681;-85
2021/07/19 08:05:10;;;;;;;4.78;3.72;;;25.30;99.90;;;;;;5073402;28;20673;-88
2021/07/19 08:07:37;;;;;;;2.97;2.75;;;25.80;99.90;;;;;;5073982;28;20205;-88
2021/07/19 08:10:05;;;;;;;3.35;3.03;;;26.40;99.90;;;;;;5074108;28;20218;-89
2021/07/19 08:12:32;;;;;;;3.05;2.85;;;26.90;99.90;;;;;;5073930;28;20257;-89
2021/07/19 08:14:59;;;;;;;3.10;2.90;;;27.30;99.90;;;;;;5073965;28;20204;-89
2021/07/19 08:17:27;;;;;;;3.10;2.95;;;27.70;99.90;;;;;;5073252;28;20638;-81
2021/07/19 08:19:56;;;;;;;3.17;2.97;;;27.90;99.90;;;;;;5072621;28;20737;-82
2021/07/19 08:22:23;;;;;;;3.90;3.10;;;27.90;99.90;;;;;;5072654;28;20210;-82
2021/07/19 08:24:50;;;;;;;3.50;3.20;;;27.90;99.90;;;;;;5073042;28;20213;-83
2021/07/19 08:27:17;;;;;;;3.55;3.35;;;27.80;99.90;;;;;;5072840;28;20592;-82
2021/07/19 08:29:44;;;;;;;3.33;3.15;;;27.60;99.90;;;;;;5072603;28;20240;-82
2021/07/19 08:32:12;;;;;;;6.53;3.70;;;27.50;99.90;;;;;;5073007;28;20198;-82
2021/07/19 08:34:40;;;;;;;3.47;3.30;;;27.60;99.90;;;;;;5073007;28;20202;-82
2021/07/19 08:37:07;;;;;;;3.50;3.20;;;27.40;99.90;;;;;;5072939;28;20206;-82
2021/07/19 08:39:34;;;;;;;4.03;3.60;;;27.30;99.90;;;;;;5073466;28;20229;-82
2021/07/19 08:42:02;;;;;;;3.55;3.35;;;27.10;99.90;;;;;;5076086;28;20260;-90
2021/07/19 08:44:34;;;;;;;3.30;3.10;;;27.10;99.90;;;;;;5077356;28;20196;-91
2021/07/19 08:47:01;;;;;;;3.95;3.72;;;27.00;99.90;;;;;;5076760;28;20192;-81
2021/07/19 08:49:29;;;;;;;3.75;3.45;;;26.60;99.90;;;;;;5076467;28;20747;-81
2021/07/19 08:51:58;;;;;;;3.50;3.30;;;26.30;99.90;;;;;;5076641;28;20210;-81
2021/07/19 08:54:27;;;;;;;3.28;3.08;;;26.40;99.90;;;;;;5076196;28;20202;-83
2021/07/19 08:56:55;;;;;;;3.80;3.60;;;26.50;99.90;;;;;;5076400;28;20288;-80
2021/07/19 08:59:22;;;;;;;3.92;3.72;;;26.60;99.90;;;;;;5076125;28;20222;-81
2021/07/19 09:01:49;;;;;;;4.30;3.90;;;26.80;99.90;;;;;;5076506;28;20214;-81
2021/07/19 09:04:19;;;;;;;4.32;3.92;;;26.90;99.90;;;;;;5076337;28;20206;-81
2021/07/19 09:06:46;;;;;;;5.93;3.35;;;26.80;99.90;;;;;;5076048;28;20559;-80
2021/07/19 09:09:14;;;;;;;3.50;3.22;;;26.90;99.90;;;;;;5076173;28;20229;-81
2021/07/19 09:11:49;;;;;;;3.80;3.42;;;27.00;99.90;;;;;;5076057;28;20218;-81
2021/07/19 09:14:16;;;;;;;3.72;3.53;;;26.90;99.90;;;;;;5078333;28;20182;-81
2021/07/19 09:16:45;;;;;;;4.40;4.00;;;26.60;99.90;;;;;;5076230;28;20205;-81
2021/07/19 09:19:14;;;;;;;4.30;3.90;;;26.20;99.90;;;;;;5076047;28;20236;-81
2021/07/19 09:21:43;;;;;;;3.80;3.45;;;26.20;99.90;;;;;;5075746;28;20233;-81
2021/07/19 09:24:11;;;;;;;4.00;3.72;;;26.00;99.90;;;;;;5076032;28;20198;-80
2021/07/19 09:26:41;;;;;;;3.60;3.35;;;26.10;99.90;;;;;;5075993;28;20202;-81
2021/07/19 09:29:11;;;;;;;3.90;3.60;;;26.10;99.90;;;;;;5075664;28;20242;-82
2021/07/19 09:31:40;;;;;;;4.35;4.03;;;26.20;99.90;;;;;;5075839;28;20198;-80
2021/07/19 09:34:13;;;;;;;3.53;3.33;;;26.50;99.90;;;;;;5075776;28;20206;-81
2021/07/19 09:36:54;;;;;;;3.50;3.30;;;26.70;99.90;;;;;;5076069;28;20194;-81
2021/07/19 09:39:21;;;;;;;4.13;3.80;;;27.00;99.90;;;;;;5075650;28;20278;-81
2021/07/19 09:41:50;;;;;;;3.55;3.35;;;27.30;99.90;;;;;;5075287;28;20218;-81
2021/07/19 09:44:16;;;;;;;4.15;3.85;;;27.40;99.90;;;;;;5075340;28;20190;-80
2021/07/19 09:46:43;;;;;;;3.83;3.05;;;27.40;99.90;;;;;;5075602;28;20209;-81
2021/07/19 09:49:10;;;;;;;3.33;3.13;;;27.50;99.90;;;;;;5075466;28;20226;-81
2021/07/19 09:51:37;;;;;;;6.20;3.45;;;27.10;99.90;;;;;;5074932;28;20202;-81
2021/07/19 09:54:11;;;;;;;3.47;3.28;;;26.90;99.90;;;;;;5075110;28;20208;-81
2021/07/19 09:56:39;;;;;;;4.47;3.40;;;26.80;99.90;;;;;;5075041;28;20209;-81
2021/07/19 09:59:08;;;;;;;3.90;3.55;;;26.70;99.90;;;;;;5074885;28;20709;-81
2021/07/19 10:01:38;;;;;;;4.78;3.22;;;26.50;99.90;;;;;;5075190;28;20249;-81
2021/07/19 10:04:06;;;;;;;4.07;3.65;;;26.20;99.90;;;;;;5074854;28;20526;-81
2021/07/19 10:06:33;;;;;;;3.70;3.40;;;26.20;99.90;;;;;;5075060;28;20209;-81
2021/07/19 10:09:01;;;;;;;4.25;3.78;;;26.20;99.90;;;;;;5074978;28;20218;-81
2021/07/19 10:11:31;;;;;;;4.30;3.83;;;26.20;99.90;;;;;;5075058;28;20198;-81
2021/07/19 10:13:57;;;;;;;5.43;4.20;;;26.00;99.90;;;;;;5074917;28;20645;-81
2021/07/19 10:16:28;;;;;;;5.60;3.10;;;25.90;99.90;;;;;;5075745;28;20537;-81
2021/07/19 10:18:55;;;;;;;4.22;3.83;;;25.70;99.90;;;;;;5074571;28;20770;-81
2021/07/19 10:21:22;;;;;;;4.05;3.17;;;25.40;99.90;;;;;;5074780;28;20226;-82
2021/07/19 10:23:49;;;;;;;7.15;3.22;;;25.50;99.90;;;;;;5074792;28;20680;-85
2021/07/19 10:26:18;;;;;;;3.92;3.53;;;26.00;99.90;;;;;;5074773;28;20669;-85
2021/07/19 10:28:45;;;;;;;5.82;3.92;;;26.60;99.90;;;;;;5074548;28;20291;-85
2021/07/19 10:31:12;;;;;;;5.55;3.55;;;27.10;99.90;;;;;;5075357;28;20539;-85
2021/07/19 10:33:40;;;;;;;3.15;3.03;;;27.50;99.90;;;;;;5074664;28;20201;-85
2021/07/19 10:36:11;;;;;;;3.33;3.08;;;27.90;99.90;;;;;;5074284;28;20198;-85
2021/07/19 10:38:41;;;;;;;3.22;3.00;;;28.20;99.90;;;;;;5074277;28;20633;-84
2021/07/19 10:41:09;;;;;;;3.45;3.15;;;28.40;99.70;;;;;;5074806;28;20210;-85
2021/07/19 10:43:35;;;;;;;3.17;3.05;;;28.50;99.70;;;;;;5074450;28;20206;-85
2021/07/19 10:46:10;;;;;;;3.15;2.95;;;28.70;99.90;;;;;;5074548;28;20209;-89
2021/07/19 10:48:37;;;;;;;3.08;2.88;;;28.80;99.90;;;;;;5074789;28;20197;-89
2021/07/19 10:51:17;;;;;;;3.30;3.00;;;28.40;99.90;;;;;;5074881;28;20202;-90
2021/07/19 10:53:44;;;;;;;3.35;3.15;;;27.80;99.90;;;;;;5074439;28;20668;-89
2021/07/19 10:56:13;;;;;;;4.30;3.25;;;27.20;99.90;;;;;;5074740;28;20213;-89
2021/07/19 10:58:41;;;;;;;4.38;3.67;;;27.00;99.90;;;;;;5074753;28;20198;-89
2021/07/19 11:01:22;;;;;;;7.25;2.80;;;26.90;99.90;;;;;;5074597;28;20225;-89
2021/07/19 11:03:49;;;;;;;3.33;3.13;;;26.70;99.90;;;;;;5074284;28;20209;-87
2021/07/19 11:06:19;;;;;;;2.78;2.58;;;26.50;99.90;;;;;;5074208;28;20198;-88
2021/07/19 11:08:50;;;;;;;2.90;2.78;;;26.30;99.90;;;;;;5074217;28;20264;-88
2021/07/19 11:11:27;;;;;;;3.40;3.10;;;26.00;99.90;;;;;;5073792;28;20202;-82
2021/07/19 11:13:57;;;;;;;3.33;2.97;;;25.90;99.90;;;;;;5073836;28;20202;-82
2021/07/19 11:16:24;;;;;;;3.33;3.03;;;26.30;99.90;;;;;;5073847;28;20202;-82
2021/07/19 11:18:56;;;;;;;3.10;2.90;;;26.60;99.90;;;;;;5073735;28;20233;-83
2021/07/19 11:21:26;;;;;;;4.20;3.00;;;26.70;99.90;;;;;;5073599;28;20263;-83
2021/07/19 11:23:54;;;;;;;3.88;3.50;;;26.80;99.90;;;;;;5074080;28;20534;-82
2021/07/19 11:26:25;;;;;;;3.53;3.22;;;26.90;99.90;;;;;;5073415;28;20684;-85
2021/07/19 11:28:55;;;;;;;2.83;2.50;;;26.80;99.90;;;;;;5073404;28;20240;-81
2021/07/19 11:31:26;;;;;;;2.80;2.60;;;26.70;99.90;;;;;;5073668;28;20628;-82
2021/07/19 11:34:02;;;;;;;2.88;2.67;;;26.70;99.90;;;;;;5073800;28;20193;-82
2021/07/19 11:36:32;;;;;;;2.55;2.42;;;26.30;99.90;;;;;;5073515;28;20544;-85
2021/07/19 11:39:00;;;;;;;3.13;2.90;;;26.00;99.90;;;;;;5073608;28;20226;-85
2021/07/19 11:41:31;;;;;;;2.72;2.53;;;25.80;99.90;;;;;;5073540;28;20279;-86
2021/07/19 11:44:01;;;;;;;2.00;1.90;;;26.00;99.90;;;;;;5073607;28;20186;-86
2021/07/19 11:46:31;;;;;;;2.55;2.15;;;26.00;99.90;;;;;;5073897;28;20251;-86
2021/07/19 11:49:01;;;;;;;3.17;2.75;;;26.10;99.90;;;;;;5073433;28;20226;-85
2021/07/19 11:51:30;;;;;;;2.85;2.25;;;26.40;99.90;;;;;;5073983;28;20186;-89
2021/07/19 11:53:58;;;;;;;2.65;2.10;;;26.60;99.50;;;;;;5074421;28;20198;-90
2021/07/19 11:56:26;;;;;;;2.85;2.40;;;26.70;98.80;;;;;;5074042;28;20213;-91
2021/07/19 11:58:54;;;;;;;3.90;1.88;;;26.80;98.10;;;;;;5074182;28;20592;-83
2021/07/19 12:01:26;;;;;;;6.32;2.80;;;26.80;97.70;;;;;;5073223;28;20218;-83
2021/07/19 12:03:54;;;;;;;2.42;2.30;;;26.90;96.30;;;;;;5073237;28;20210;-83
2021/07/19 12:06:21;;;;;;;5.35;2.92;;;26.80;98.60;;;;;;5072969;28;20747;-83
2021/07/19 12:08:54;;;;;;;2.53;2.33;;;26.50;99.90;;;;;;5073155;28;20640;-83
2021/07/19 12:11:21;;;;;;;2.30;2.20;;;26.20;99.90;;;;;;5073837;28;20182;-90
2021/07/19 12:13:49;;;;;;;2.67;2.58;;;26.00;99.90;;;;;;5073424;28;20190;-86
2021/07/19 12:16:16;;;;;;;2.40;2.20;;;26.00;99.90;;;;;;5075356;28;20210;-85
2021/07/19 12:18:46;;;;;;;4.70;2.78;;;26.20;99.90;;;;;;5077214;28;20584;-83
2021/07/19 12:21:14;;;;;;;2.88;2.08;;;26.20;99.60;;;;;;5077737;28;20210;-91
2021/07/19 12:23:42;;;;;;;2.75;1.83;;;26.30;99.80;;;;;;5077473;28;20212;-83
2021/07/19 12:26:13;;;;;;;5.60;1.58;;;26.30;97.90;;;;;;5077146;28;20202;-83
2021/07/19 12:28:52;;;;;;;3.83;2.20;;;26.40;98.20;;;;;;5077031;28;20186;-83
2021/07/19 12:31:26;;;;;;;4.85;2.70;;;26.50;97.60;;;;;;5076994;28;20198;-83
2021/07/19 12:33:53;;;;;;;3.35;2.63;;;26.70;98.40;;;;;;5076694;28;20189;-83
2021/07/19 12:36:20;;;;;;;2.63;2.42;;;26.60;98.90;;;;;;5076577;28;20209;-83
2021/07/19 12:38:48;;;;;;;2.13;2.00;;;26.50;98.20;;;;;;5076742;28;20226;-82
2021/07/19 12:41:17;;;;;;;2.30;2.20;;;26.10;99.10;;;;;;5076615;28;20232;-83
2021/07/19 12:43:45;;;;;;;2.65;2.17;;;25.90;97.40;;;;;;5076407;28;20581;-82
2021/07/19 12:46:12;;;;;;;2.60;1.85;;;25.90;97.70;;;;;;5076335;28;20197;-83
2021/07/19 12:48:45;;;;;;;2.55;2.45;;;25.90;97.50;;;;;;5076541;28;20209;-83
2021/07/19 12:51:12;;;;;;;2.47;2.20;;;26.00;97.50;;;;;;5076716;28;20190;-83
2021/07/19 12:53:39;;;;;;;1.58;1.48;;;26.00;97.00;;;;;;5076536;28;20240;-82